Time;durP1;ratioP1;P1;durP2;ratioP2;P2;SDS_P1;SDS_P2;PMS_P1;PMS_P2;Temp;Humidity;BMP_temperature;BMP_pressure;BME280_temperature;BME280_humidity;BME280_pressure;Samples;Min_cycle;Max_cycle;Signal;HPM_P1;HPM_P2
2022/09/01 00:02:14;;;;;;;10.63;9.65;;;;;;;18.66;100.00;94283.13;5030506;28;20210;-63
2022/09/01 00:04:43;;;;;;;12.70;10.50;;;;;;;18.52;100.00;94284.03;5031228;28;20706;-62
2022/09/01 00:07:10;;;;;;;13.38;10.82;;;;;;;18.50;100.00;94281.66;5012940;28;20178;-62
2022/09/01 00:09:36;;;;;;;14.00;11.07;;;;;;;18.46;100.00;94287.34;5031237;28;20225;-64
2022/09/01 00:12:04;;;;;;;11.35;10.23;;;;;;;18.48;100.00;94281.03;5030679;28;20190;-64
2022/09/01 00:14:39;;;;;;;16.50;10.90;;;;;;;18.61;100.00;94275.97;5030457;28;20210;-63
2022/09/01 00:17:09;;;;;;;12.90;10.60;;;;;;;18.58;100.00;94284.09;5012513;28;20189;-64
2022/09/01 00:19:35;;;;;;;14.48;10.70;;;;;;;18.42;100.00;94277.38;5030730;28;20210;-63
2022/09/01 00:22:02;;;;;;;14.18;11.30;;;;;;;18.30;100.00;94267.78;5013038;28;20219;-62
2022/09/01 00:24:28;;;;;;;15.50;11.25;;;;;;;18.30;100.00;94280.66;5030490;28;20690;-62
2022/09/01 00:26:55;;;;;;;13.20;11.13;;;;;;;18.17;100.00;94267.69;5029563;28;20187;-61
2022/09/01 00:29:21;;;;;;;14.18;11.00;;;;;;;18.23;100.00;94272.06;5013551;28;20222;-62
2022/09/01 00:31:48;;;;;;;13.32;11.80;;;;;;;18.16;100.00;94261.72;5030272;28;20186;-64
2022/09/01 00:34:15;;;;;;;16.33;12.38;;;;;;;18.04;100.00;94268.34;5030677;28;20301;-62
2022/09/01 00:36:41;;;;;;;14.98;11.77;;;;;;;18.08;100.00;94274.72;5029479;28;20196;-62
2022/09/01 00:39:08;;;;;;;14.45;12.32;;;;;;;18.07;100.00;94273.13;5032673;28;20212;-61
2022/09/01 00:41:41;;;;;;;18.17;13.50;;;;;;;17.99;100.00;94270.69;5033349;28;20216;-62
2022/09/01 00:44:10;;;;;;;15.43;12.15;;;;;;;18.11;100.00;94276.94;5033938;28;20206;-62
2022/09/01 00:46:42;;;;;;;16.77;11.73;;;;;;;18.14;100.00;94279.13;5033758;28;20198;-63
2022/09/01 00:49:13;;;;;;;17.17;11.77;;;;;;;18.25;100.00;94281.22;5034066;28;20289;-63
2022/09/01 00:51:42;;;;;;;16.48;12.88;;;;;;;18.11;100.00;94287.22;5032521;28;20248;-64
2022/09/01 00:54:13;;;;;;;15.70;12.65;;;;;;;18.15;100.00;94288.44;5033865;28;20688;-62
2022/09/01 00:56:40;;;;;;;13.68;12.25;;;;;;;18.26;100.00;94293.09;5033860;28;20174;-64
2022/09/01 00:59:08;;;;;;;14.55;12.35;;;;;;;18.36;100.00;94296.13;5015671;28;20343;-64
2022/09/01 01:01:35;;;;;;;13.05;11.55;;;;;;;18.46;100.00;94292.50;5032187;28;20641;-63
2022/09/01 01:04:05;;;;;;;15.65;11.95;;;;;;;18.46;100.00;94297.66;5033620;28;20218;-62
2022/09/01 01:06:32;;;;;;;12.80;11.48;;;;;;;18.62;100.00;94299.94;5033472;28;20236;-64
2022/09/01 01:09:00;;;;;;;15.23;12.27;;;;;;;18.56;100.00;94301.50;5015803;28;20608;-63
2022/09/01 01:11:30;;;;;;;14.70;11.60;;;;;;;18.59;100.00;94297.72;5033164;28;20188;-62
2022/09/01 01:14:00;;;;;;;16.40;12.70;;;;;;;18.39;100.00;94294.97;5033579;28;20301;-63
2022/09/01 01:16:28;;;;;;;14.15;12.65;;;;;;;18.37;100.00;94302.09;5015466;28;20720;-62
2022/09/01 01:18:54;;;;;;;14.18;12.75;;;;;;;18.38;100.00;94301.13;5033442;28;20213;-61
2022/09/01 01:24:26;;;;;;;16.42;13.65;;;;;;;18.20;100.00;94293.81;5033931;28;20253;-63
2022/09/01 01:26:53;;;;;;;16.48;13.20;;;;;;;18.16;100.00;94296.97;5033136;28;20232;-65
2022/09/01 01:29:20;;;;;;;18.20;14.55;;;;;;;18.05;100.00;94298.25;5015409;28;20238;-64
2022/09/01 01:31:48;;;;;;;17.77;14.80;;;;;;;17.97;100.00;94306.09;5032878;28;20182;-65
2022/09/01 01:34:16;;;;;;;16.08;13.55;;;;;;;17.96;100.00;94306.25;5015381;28;20218;-62
2022/09/01 01:36:41;;;;;;;18.83;14.57;;;;;;;17.91;100.00;94313.72;5032810;28;20186;-62
2022/09/01 01:39:14;;;;;;;19.90;14.02;;;;;;;17.76;100.00;94305.25;5033084;28;20260;-63
2022/09/01 01:41:43;;;;;;;19.17;13.80;;;;;;;17.81;100.00;94301.19;5032678;28;20241;-63
2022/09/01 01:44:11;;;;;;;16.02;12.07;;;;;;;17.79;100.00;94299.75;5032608;28;20214;-62
2022/09/01 01:46:42;;;;;;;16.40;12.63;;;;;;;17.79;100.00;94305.72;5032843;28;20186;-61
2022/09/01 01:49:12;;;;;;;15.70;12.00;;;;;;;17.61;100.00;94310.47;5032176;28;20234;-62
2022/09/01 01:51:37;;;;;;;13.27;11.98;;;;;;;17.69;100.00;94312.91;5050852;23;20221;-64
2022/09/01 01:54:04;;;;;;;15.63;12.80;;;;;;;17.77;100.00;94317.16;5052455;28;20216;-65
2022/09/01 01:56:31;;;;;;;16.75;12.38;;;;;;;17.78;100.00;94314.38;5052947;28;20178;-64
2022/09/01 01:58:58;;;;;;;20.80;14.35;;;;;;;17.82;100.00;94315.63;5053085;28;20240;-65
2022/09/01 02:01:27;;;;;;;17.83;13.98;;;;;;;17.89;100.00;94313.94;5052546;28;20213;-62
2022/09/01 02:03:54;;;;;;;19.45;14.65;;;;;;;17.71;100.00;94323.00;5052653;28;20213;-65
2022/09/01 02:06:23;;;;;;;17.98;14.80;;;;;;;17.63;100.00;94319.56;5035416;28;20284;-66
2022/09/01 02:08:51;;;;;;;17.40;14.93;;;;;;;17.57;100.00;94327.22;5034318;28;20691;-63
2022/09/01 02:11:17;;;;;;;17.50;13.98;;;;;;;17.46;100.00;94319.91;5052764;28;20280;-62
2022/09/01 02:13:43;;;;;;;18.55;14.63;;;;;;;17.45;100.00;94323.47;5057171;22;20238;-65
2022/09/01 02:16:13;;;;;;;20.20;14.50;;;;;;;17.36;100.00;94329.69;5032434;28;20194;-62
2022/09/01 02:18:46;;;;;;;17.00;14.38;;;;;;;17.44;100.00;94332.16;5032240;28;20214;-63
2022/09/01 02:21:18;;;;;;;17.02;14.40;;;;;;;17.37;100.00;94331.28;5032320;28;20708;-62
2022/09/01 02:23:45;;;;;;;16.40;13.13;;;;;;;17.38;100.00;94333.69;5032088;28;20202;-61
2022/09/01 02:26:10;;;;;;;14.70;12.30;;;;;;;17.47;100.00;94336.94;5032637;28;20620;-62
2022/09/01 02:28:41;;;;;;;14.05;12.55;;;;;;;17.49;100.00;94329.88;5032004;28;20711;-62
2022/09/01 02:31:09;;;;;;;17.95;12.48;;;;;;;17.60;100.00;94332.78;5033271;28;20243;-61
2022/09/01 02:33:37;;;;;;;16.65;12.75;;;;;;;17.50;100.00;94334.84;5032285;28;20255;-62
2022/09/01 02:36:08;;;;;;;15.75;11.98;;;;;;;17.54;100.00;94319.84;5032196;28;20273;-61
2022/09/01 02:38:34;;;;;;;14.75;12.35;;;;;;;17.48;100.00;94317.97;5033518;28;20198;-62
2022/09/01 02:41:02;;;;;;;14.20;12.57;;;;;;;17.47;100.00;94316.38;5034056;28;20248;-62
2022/09/01 02:43:30;;;;;;;16.65;12.60;;;;;;;17.34;100.00;94321.34;5033274;28;20603;-65
2022/09/01 02:45:58;;;;;;;13.10;11.77;;;;;;;17.38;100.00;94320.81;5033414;28;20192;-64
2022/09/01 02:48:37;;;;;;;15.57;12.43;;;;;;;17.35;100.00;94317.81;5032260;28;20194;-64
2022/09/01 02:51:13;;;;;;;14.15;12.68;;;;;;;17.36;100.00;94309.13;5014388;28;20194;-63
2022/09/01 02:53:38;;;;;;;17.17;12.70;;;;;;;17.32;100.00;94310.47;5014117;28;20213;-62
2022/09/01 02:56:10;;;;;;;16.85;12.30;;;;;;;17.29;100.00;94314.19;5031671;28;20239;-63
2022/09/01 02:58:44;;;;;;;15.10;11.77;;;;;;;17.25;100.00;94317.31;5032643;28;20214;-63
2022/09/01 03:01:12;;;;;;;13.35;11.38;;;;;;;17.28;100.00;94309.22;5014543;28;20217;-62
2022/09/01 03:03:37;;;;;;;13.25;11.85;;;;;;;17.19;100.00;94307.75;5032158;28;20251;-64
2022/09/01 03:06:03;;;;;;;15.13;13.23;;;;;;;17.26;100.00;94303.47;5031908;28;20225;-63
2022/09/01 03:08:35;;;;;;;14.45;12.02;;;;;;;17.21;100.00;94306.56;5031543;28;20761;-62
2022/09/01 03:11:01;;;;;;;19.10;12.20;;;;;;;17.26;100.00;94308.59;5031827;28;20573;-63
2022/09/01 03:13:28;;;;;;;14.30;11.43;;;;;;;17.25;100.00;94307.03;5031590;28;20194;-63
2022/09/01 03:15:53;;;;;;;20.08;12.38;;;;;;;17.19;100.00;94310.31;5032292;28;20179;-62
2022/09/01 03:18:19;;;;;;;14.48;12.50;;;;;;;17.25;100.00;94307.81;5014384;28;20186;-62
2022/09/01 03:20:46;;;;;;;15.10;11.68;;;;;;;17.33;100.00;94309.50;5031565;28;20695;-65
2022/09/01 03:23:15;;;;;;;16.30;11.98;;;;;;;17.29;100.00;94314.19;5013794;28;20194;-64
2022/09/01 03:25:43;;;;;;;17.42;12.40;;;;;;;17.16;100.00;94310.66;5032125;28;20238;-62
2022/09/01 03:28:13;;;;;;;15.90;11.77;;;;;;;17.12;100.00;94309.41;5057422;23;20282;-64
2022/09/01 03:30:45;;;;;;;13.70;11.18;;;;;;;17.16;100.00;94310.66;5031653;28;20652;-62
2022/09/01 03:33:10;;;;;;;13.82;11.00;;;;;;;17.07;100.00;94309.94;5030969;28;20209;-62
2022/09/01 03:35:36;;;;;;;13.95;11.82;;;;;;;17.08;100.00;94306.41;5031663;28;20194;-63
2022/09/01 03:38:03;;;;;;;15.95;11.20;;;;;;;16.98;100.00;94305.06;5031028;28;20190;-66
2022/09/01 03:40:32;;;;;;;13.35;11.85;;;;;;;17.06;100.00;94308.34;5031150;28;20290;-62
2022/09/01 03:43:05;;;;;;;15.30;12.00;;;;;;;17.08;100.00;94313.31;5031389;28;20194;-63
2022/09/01 03:45:38;;;;;;;18.73;12.98;;;;;;;17.05;100.00;94317.03;5031462;28;20593;-63
2022/09/01 03:48:07;;;;;;;16.30;12.50;;;;;;;17.08;100.00;94315.88;5013349;28;20193;-64
2022/09/01 03:50:42;;;;;;;16.95;12.10;;;;;;;17.19;100.00;94313.66;5018825;28;20202;-63
2022/09/01 03:53:08;;;;;;;15.30;13.00;;;;;;;17.03;100.00;94315.63;5013792;28;20189;-63
2022/09/01 03:55:36;;;;;;;14.23;12.60;;;;;;;17.13;100.00;94314.38;5031794;28;20190;-65
2022/09/01 03:58:07;;;;;;;14.63;11.82;;;;;;;17.29;100.00;94319.31;5031265;28;20186;-62
2022/09/01 04:00:37;;;;;;;16.70;11.90;;;;;;;17.69;100.00;94309.53;5012644;28;20210;-63
2022/09/01 04:03:06;;;;;;;13.45;11.85;;;;;;;17.66;100.00;94305.56;5031057;28;20265;-64
2022/09/01 04:05:36;;;;;;;18.95;12.35;;;;;;;17.88;100.00;94309.75;5014158;28;20238;-63
2022/09/01 04:08:04;;;;;;;12.27;11.00;;;;;;;18.07;100.00;94310.94;5031593;28;20216;-63
2022/09/01 04:10:36;;;;;;;14.93;11.20;;;;;;;18.41;100.00;94311.84;5030626;28;20202;-64
2022/09/01 04:13:03;;;;;;;15.73;12.25;;;;;;;18.70;100.00;94331.50;5031440;28;20190;-62
2022/09/01 04:15:28;;;;;;;12.68;10.55;;;;;;;18.98;100.00;94345.19;5034009;28;20198;-64
2022/09/01 04:18:08;;;;;;;12.85;10.48;;;;;;;19.22;100.00;94360.19;5016314;28;20338;-63
2022/09/01 04:20:46;;;;;;;15.20;11.10;;;;;;;19.36;100.00;94368.84;5034288;28;20241;-61
2022/09/01 04:23:12;;;;;;;13.85;10.55;;;;;;;19.39;100.00;94360.72;5016283;28;20186;-64
2022/09/01 04:25:37;;;;;;;12.30;10.60;;;;;;;19.51;100.00;94372.09;5016375;28;20190;-65
2022/09/01 04:28:11;;;;;;;13.95;11.35;;;;;;;19.58;100.00;94374.69;5016266;28;20567;-63
2022/09/01 04:30:39;;;;;;;12.02;10.13;;;;;;;19.58;100.00;94406.44;5033892;28;20269;-64
2022/09/01 04:33:06;;;;;;;12.52;11.23;;;;;;;19.19;100.00;94362.34;5033881;28;20190;-62
2022/09/01 04:35:37;;;;;;;12.15;10.50;;;;;;;19.01;100.00;94342.22;5033678;28;20233;-63
2022/09/01 04:38:03;;;;;;;14.43;11.25;;;;;;;18.92;100.00;94324.53;5033799;28;20190;-63
2022/09/01 04:40:28;;;;;;;13.35;10.48;;;;;;;18.71;100.00;94347.75;5016626;28;20260;-63
2022/09/01 04:42:53;;;;;;;12.88;10.70;;;;;;;18.70;100.00;94348.72;5033617;28;20191;-62
2022/09/01 04:45:23;;;;;;;13.25;11.85;;;;;;;18.48;100.00;94337.69;5035548;28;20193;-63
2022/09/01 04:47:50;;;;;;;15.18;11.40;;;;;;;18.33;100.00;94311.97;5034517;28;20363;-64
2022/09/01 04:50:16;;;;;;;15.88;11.30;;;;;;;18.15;100.00;94311.59;5034049;28;20233;-60
2022/09/01 04:52:44;;;;;;;16.45;14.07;;;;;;;18.16;100.00;94300.31;5035393;28;20210;-63
2022/09/01 04:55:17;;;;;;;17.30;12.13;;;;;;;18.36;100.00;94305.66;5034346;28;20217;-64
2022/09/01 04:57:48;;;;;;;15.85;11.57;;;;;;;18.60;100.00;94322.50;5016330;28;20281;-63
2022/09/01 05:00:21;;;;;;;13.88;11.13;;;;;;;18.67;100.00;94333.66;5034480;28;20209;-64
2022/09/01 05:02:52;;;;;;;12.77;11.18;;;;;;;18.54;100.00;94300.88;5017644;28;20210;-63
2022/09/01 05:05:22;;;;;;;14.93;12.70;;;;;;;18.52;100.00;94302.84;5016453;28;20214;-64
2022/09/01 05:07:51;;;;;;;14.15;12.63;;;;;;;18.68;100.00;94330.91;5017334;28;20656;-63
2022/09/01 05:10:21;;;;;;;13.23;11.85;;;;;;;18.91;100.00;94334.03;5033494;28;20210;-62
2022/09/01 05:12:48;;;;;;;17.08;12.52;;;;;;;18.86;100.00;94333.00;5034632;28;20205;-65
2022/09/01 05:15:16;;;;;;;16.20;12.13;;;;;;;18.95;100.00;94313.81;5032660;28;20206;-61
2022/09/01 05:17:42;;;;;;;16.05;11.23;;;;;;;19.17;100.00;94305.03;5035010;28;20197;-65
2022/09/01 05:20:10;;;;;;;15.15;11.98;;;;;;;19.42;100.00;94324.25;5033889;28;20298;-61
2022/09/01 05:22:39;;;;;;;13.65;11.70;;;;;;;19.57;100.00;94355.88;5033234;28;20218;-63
2022/09/01 05:25:12;;;;;;;13.15;11.82;;;;;;;19.29;100.00;94339.59;5034322;28;20252;-63
2022/09/01 05:27:40;;;;;;;11.70;10.50;;;;;;;19.50;100.00;94311.19;5015242;28;20571;-62
2022/09/01 05:30:07;;;;;;;19.65;12.93;;;;;;;19.62;100.00;94348.34;5031717;28;20733;-64
2022/09/01 05:32:37;;;;;;;16.58;12.25;;;;;;;19.82;100.00;94332.91;4998329;28;20210;-65
2022/09/01 05:35:07;;;;;;;15.65;13.50;;;;;;;19.91;100.00;94380.78;5032892;28;20596;-59
2022/09/01 05:37:36;;;;;;;13.40;11.70;;;;;;;19.66;100.00;94316.00;5032958;28;20281;-60
2022/09/01 05:40:08;;;;;;;18.10;11.90;;;;;;;19.88;100.00;94330.38;5015222;28;20683;-59
2022/09/01 05:42:37;;;;;;;20.88;14.43;;;;;;;19.99;100.00;94368.53;5015944;28;20304;-61
2022/09/01 05:45:03;;;;;;;19.23;12.75;;;;;;;19.76;100.00;94303.53;5032953;28;20248;-63
2022/09/01 05:47:29;;;;;;;14.93;12.57;;;;;;;19.93;100.00;94324.63;5014847;28;20340;-61
2022/09/01 05:49:55;;;;;;;14.30;12.00;;;;;;;20.17;100.00;94346.50;5032855;28;20560;-62
2022/09/01 05:52:24;;;;;;;18.13;14.73;;;;;;;20.46;100.00;94372.03;5015151;28;20190;-63
2022/09/01 05:54:50;;;;;;;16.02;12.27;;;;;;;20.64;100.00;94395.50;5032453;28;20202;-61
2022/09/01 05:57:18;;;;;;;18.70;12.98;;;;;;;20.85;100.00;94392.72;5032880;28;20187;-63
2022/09/01 05:59:48;;;;;;;26.98;17.40;;;;;;;21.32;100.00;94327.88;5032538;28;20210;-64
2022/09/01 06:02:13;;;;;;;27.92;17.83;;;;;;;21.68;100.00;94348.84;5032509;28;20222;-61
2022/09/01 06:04:40;;;;;;;25.08;15.88;;;;;;;21.93;100.00;94400.75;5032339;28;20213;-62
2022/09/01 06:07:08;;;;;;;24.98;15.98;;;;;;;22.15;99.30;94409.03;5032420;28;20766;-62
2022/09/01 06:09:43;;;;;;;22.10;15.77;;;;;;;22.26;97.62;94414.34;5032297;28;20218;-61
2022/09/01 06:12:21;;;;;;;22.58;17.38;;;;;;;22.40;95.45;94446.94;5032871;28;20236;-60
2022/09/01 06:14:49;;;;;;;23.45;15.35;;;;;;;22.24;95.96;94412.97;5032292;28;20704;-62
2022/09/01 06:17:17;;;;;;;22.85;14.68;;;;;;;22.29;95.43;94423.50;5032615;28;20189;-61
2022/09/01 06:19:43;;;;;;;23.48;15.38;;;;;;;22.32;94.60;94428.28;5032128;28;20206;-61
2022/09/01 06:22:10;;;;;;;16.83;13.23;;;;;;;22.29;94.87;94413.94;5014284;28;20230;-62
2022/09/01 06:24:38;;;;;;;19.38;14.30;;;;;;;22.35;94.05;94422.69;5032096;28;20229;-62
2022/09/01 06:27:08;;;;;;;21.75;15.15;;;;;;;22.42;93.29;94423.44;5032239;28;20198;-62
2022/09/01 06:29:38;;;;;;;18.67;12.90;;;;;;;22.24;93.13;94434.47;5032149;28;20202;-61
2022/09/01 06:32:09;;;;;;;15.57;13.02;;;;;;;22.04;95.23;94394.94;5032093;28;20281;-61
2022/09/01 06:34:37;;;;;;;16.33;13.30;;;;;;;21.96;95.69;94386.63;5032070;28;20229;-63
2022/09/01 06:37:03;;;;;;;22.23;16.80;;;;;;;22.02;93.31;94425.41;5030953;28;20190;-63
2022/09/01 06:39:30;;;;;;;21.10;16.13;;;;;;;21.73;94.29;94397.41;5031661;28;20331;-62
2022/09/01 06:41:56;;;;;;;24.10;16.70;;;;;;;21.47;98.48;94341.34;5031945;28;20237;-63
2022/09/01 06:44:23;;;;;;;19.60;14.73;;;;;;;21.47;98.76;94338.75;5031995;28;20197;-62
2022/09/01 06:46:50;;;;;;;19.92;14.50;;;;;;;21.27;99.47;94313.97;5031672;28;20214;-63
2022/09/01 06:49:16;;;;;;;21.70;15.88;;;;;;;21.35;99.05;94327.44;5013977;28;20209;-62
2022/09/01 06:51:41;;;;;;;23.10;16.63;;;;;;;21.36;99.33;94329.06;5013982;28;20256;-61
2022/09/01 06:54:06;;;;;;;21.25;15.75;;;;;;;21.33;99.45;94319.09;5031680;28;20205;-60
2022/09/01 06:56:32;;;;;;;22.55;17.13;;;;;;;21.34;99.23;94331.06;5031769;28;20198;-60
2022/09/01 06:59:03;;;;;;;24.80;15.45;;;;;;;21.39;100.00;94320.88;5031497;28;20210;-61
2022/09/01 07:01:29;;;;;;;25.88;17.60;;;;;;;21.59;96.81;94370.00;5031737;28;20218;-62
2022/09/01 07:03:57;;;;;;;28.50;17.67;;;;;;;21.48;98.49;94345.53;5038954;22;20222;-61
2022/09/01 07:06:26;;;;;;;29.35;18.75;;;;;;;21.57;99.62;94331.38;5031281;28;20182;-61
2022/09/01 07:08:57;;;;;;;28.02;18.02;;;;;;;21.91;96.96;94369.09;5031630;28;20206;-61
2022/09/01 07:11:29;;;;;;;21.35;14.10;;;;;;;22.27;95.73;94378.88;5031564;28;20273;-60
2022/09/01 07:14:02;;;;;;;29.17;19.20;;;;;;;22.44;93.37;94421.44;5031317;28;20703;-61
2022/09/01 07:16:31;;;;;;;21.50;16.20;;;;;;;22.71;92.30;94433.25;5031253;28;20277;-61
2022/09/01 07:19:00;;;;;;;20.15;16.55;;;;;;;22.93;91.31;94441.47;5031504;28;20209;-61
2022/09/01 07:21:28;;;;;;;31.85;20.52;;;;;;;22.97;89.23;94464.19;5031210;28;20218;-61
2022/09/01 07:23:54;;;;;;;23.88;16.58;;;;;;;22.68;92.03;94418.16;5031241;28;20213;-61
2022/09/01 07:26:24;;;;;;;25.67;19.58;;;;;;;22.80;90.97;94416.47;5031079;28;20193;-60
2022/09/01 07:28:51;;;;;;;24.45;18.02;;;;;;;22.72;91.36;94414.13;5031181;28;20253;-63
2022/09/01 07:31:19;;;;;;;25.65;16.67;;;;;;;23.00;90.37;94426.69;5013259;28;20668;-61
2022/09/01 07:33:47;;;;;;;26.85;20.25;;;;;;;23.19;89.10;94442.09;5031041;28;20601;-60
2022/09/01 07:36:14;;;;;;;21.17;16.75;;;;;;;23.33;88.01;94453.19;5013128;28;20679;-60
2022/09/01 07:38:39;;;;;;;33.08;21.98;;;;;;;23.46;87.25;94467.84;5031182;28;20216;-60
2022/09/01 07:41:05;;;;;;;26.77;20.15;;;;;;;23.69;86.30;94468.03;5030826;28;20198;-61
2022/09/01 07:43:32;;;;;;;25.40;19.10;;;;;;;23.64;86.29;94460.09;5013202;28;20225;-62
2022/09/01 07:45:58;;;;;;;24.60;19.77;;;;;;;23.54;86.13;94463.19;5013123;28;20679;-62
2022/09/01 07:48:26;;;;;;;25.55;19.63;;;;;;;23.63;85.83;94458.50;5030878;28;20190;-61
2022/09/01 07:50:55;;;;;;;32.38;23.85;;;;;;;23.83;84.06;94495.47;5030644;28;20212;-62
2022/09/01 07:53:30;;;;;;;21.15;16.08;;;;;;;23.55;87.00;94428.44;5031220;28;20186;-61
2022/09/01 07:55:58;;;;;;;24.65;19.35;;;;;;;23.59;87.43;94421.00;5030772;28;20574;-61
2022/09/01 07:58:26;;;;;;;26.08;19.73;;;;;;;23.83;86.18;94451.31;5030843;28;20198;-62
2022/09/01 08:00:54;;;;;;;29.45;22.73;;;;;;;23.89;85.87;94459.06;5030831;28;20214;-62
2022/09/01 08:03:23;;;;;;;26.30;18.85;;;;;;;23.85;85.44;94457.09;5013459;28;20281;-63
2022/09/01 08:05:52;;;;;;;26.48;20.52;;;;;;;23.59;85.16;94454.75;5012867;28;20190;-60
2022/09/01 08:08:18;;;;;;;28.90;21.25;;;;;;;23.59;84.83;94462.53;5013377;28;20632;-63
2022/09/01 08:10:45;;;;;;;25.45;20.48;;;;;;;23.50;85.17;94453.44;5030459;28;20257;-61
2022/09/01 08:13:11;;;;;;;26.42;17.80;;;;;;;23.20;87.47;94414.34;5030471;28;20255;-62
2022/09/01 08:15:40;;;;;;;29.05;21.63;;;;;;;23.12;86.49;94420.59;5030534;28;20182;-61
2022/09/01 08:18:06;;;;;;;22.13;18.80;;;;;;;23.06;87.35;94411.09;5030514;28;20183;-60
2022/09/01 08:20:36;;;;;;;24.20;18.15;;;;;;;23.39;86.38;94435.97;5030336;28;20228;-61
2022/09/01 08:23:02;;;;;;;26.20;18.48;;;;;;;23.68;86.13;94430.09;5030191;28;20212;-61
2022/09/01 08:25:29;;;;;;;29.70;19.75;;;;;;;23.69;84.88;94445.47;5030475;28;20232;-62
2022/09/01 08:27:56;;;;;;;25.27;18.08;;;;;;;23.88;85.42;94428.88;5030355;28;20297;-61
2022/09/01 08:30:22;;;;;;;19.55;16.60;;;;;;;23.81;85.09;94440.38;5012530;28;20210;-62
2022/09/01 08:32:48;;;;;;;26.70;16.58;;;;;;;24.13;83.97;94465.22;5030335;28;20217;-59
2022/09/01 08:35:15;;;;;;;17.38;15.45;;;;;;;24.29;82.44;94488.00;5030148;28;20214;-59
2022/09/01 08:37:42;;;;;;;18.15;15.23;;;;;;;24.61;81.16;94499.00;5030518;28;20547;-59
2022/09/01 08:40:13;;;;;;;19.77;15.85;;;;;;;24.70;79.55;94521.91;5029831;28;20234;-64
2022/09/01 08:42:47;;;;;;;21.83;18.35;;;;;;;24.90;79.41;94517.28;5012637;28;20210;-61
2022/09/01 08:45:32;;;;;;;21.60;16.17;;;;;;;25.14;78.44;94535.56;5012306;28;20249;-61
2022/09/01 08:48:17;;;;;;;24.88;18.42;;;;;;;25.30;76.52;94559.16;5012452;28;20609;-61
2022/09/01 08:50:47;;;;;;;24.17;18.63;;;;;;;25.25;74.88;94572.03;5030287;28;20310;-60
2022/09/01 08:53:28;;;;;;;19.40;15.23;;;;;;;24.90;78.14;94504.28;5030160;28;20194;-61
2022/09/01 08:55:58;;;;;;;19.45;17.00;;;;;;;25.14;76.66;94528.56;5030292;28;20186;-63
2022/09/01 08:58:24;;;;;;;24.48;16.58;;;;;;;25.01;78.36;94481.88;5012412;28;20360;-61
2022/09/01 09:01:10;;;;;;;21.63;15.05;;;;;;;25.24;78.96;94463.75;5033113;28;20193;-60
2022/09/01 09:03:54;;;;;;;20.20;16.30;;;;;;;25.59;79.00;94471.63;5015684;28;20789;-60
2022/09/01 09:06:44;;;;;;;24.42;16.70;;;;;;;25.35;78.45;94464.78;5033750;28;20186;-60
2022/09/01 09:09:09;;;;;;;24.90;17.02;;;;;;;25.18;76.73;94495.06;5033334;28;20300;-60
2022/09/01 09:11:57;;;;;;;22.70;15.95;;;;;;;24.86;79.37;94438.09;5033258;28;20708;-62
2022/09/01 09:15:01;;;;;;;18.70;14.73;;;;;;;24.72;79.78;94428.88;5033495;28;20680;-61
2022/09/01 09:17:33;;;;;;;18.50;14.65;;;;;;;25.13;80.42;94419.47;5033312;28;20201;-62
2022/09/01 09:19:59;;;;;;;18.60;14.63;;;;;;;25.37;76.59;94488.78;5015441;28;20206;-61
2022/09/01 09:22:25;;;;;;;22.85;14.85;;;;;;;25.40;77.03;94477.91;5032969;28;20202;-61
2022/09/01 09:24:59;;;;;;;18.40;14.63;;;;;;;25.50;73.66;94538.84;5033147;28;20210;-60
2022/09/01 09:27:31;;;;;;;19.60;14.90;;;;;;;25.84;73.18;94536.53;5032955;28;20235;-59
2022/09/01 09:29:59;;;;;;;20.10;14.13;;;;;;;25.91;71.64;94561.44;5032912;28;20218;-59
2022/09/01 09:32:50;;;;;;;15.18;13.05;;;;;;;26.37;72.19;94545.00;5032900;28;20186;-62
2022/09/01 09:35:35;;;;;;;21.60;14.55;;;;;;;26.93;68.74;94596.50;5015527;28;20217;-63
2022/09/01 09:38:17;;;;;;;21.33;14.98;;;;;;;27.09;67.32;94606.25;5033011;28;20198;-60
2022/09/01 09:41:03;;;;;;;16.90;13.40;;;;;;;27.39;69.14;94541.53;5033010;28;20186;-62
2022/09/01 09:43:41;;;;;;;19.05;15.20;;;;;;;27.73;65.91;94615.50;5032878;28;20244;-62
2022/09/01 09:46:25;;;;;;;19.55;15.57;;;;;;;27.60;65.06;94607.94;5032784;28;20232;-62
2022/09/01 09:49:25;;;;;;;21.77;14.68;;;;;;;27.84;65.73;94593.72;5032746;28;20262;-62
2022/09/01 09:51:54;;;;;;;22.13;13.82;;;;;;;27.74;66.63;94559.59;5032590;28;20272;-62
2022/09/01 09:54:25;;;;;;;34.45;14.43;;;;;;;28.26;65.99;94560.16;5032920;28;20210;-62
2022/09/01 09:57:12;;;;;;;22.10;14.98;;;;;;;28.66;64.38;94592.91;5032682;28;20182;-63
2022/09/01 09:59:47;;;;;;;21.58;13.70;;;;;;;28.11;62.60;94623.47;5033003;28;20217;-62
2022/09/01 10:02:30;;;;;;;19.67;14.65;;;;;;;28.80;60.10;94674.47;5014934;28;20577;-61
2022/09/01 10:04:58;;;;;;;18.67;13.05;;;;;;;28.52;59.94;94662.28;5032810;28;20210;-61
2022/09/01 10:07:32;;;;;;;13.30;11.27;;;;;;;27.53;62.63;94575.97;5032572;28;20213;-62
2022/09/01 10:10:05;;;;;;;14.65;11.10;;;;;;;26.64;62.83;94561.75;5032344;28;20218;-62
2022/09/01 10:12:31;;;;;;;14.52;10.75;;;;;;;26.32;62.48;94566.53;5014087;28;20190;-61
2022/09/01 10:15:09;;;;;;;13.55;9.85;;;;;;;26.41;63.16;94541.72;5032270;28;20264;-62
2022/09/01 10:17:40;;;;;;;15.00;10.75;;;;;;;26.22;66.09;94476.91;5014584;28;20225;-61
2022/09/01 10:20:19;;;;;;;15.52;10.65;;;;;;;26.05;64.48;94521.09;5032777;28;20710;-62
2022/09/01 10:22:47;;;;;;;14.27;11.13;;;;;;;25.88;67.56;94439.41;5014514;28;20602;-60
2022/09/01 10:25:27;;;;;;;15.50;12.10;;;;;;;25.87;68.25;94426.63;5032099;28;20210;-60
2022/09/01 10:28:23;;;;;;;13.18;11.70;;;;;;;25.65;68.73;94423.84;5032359;28;20252;-59
2022/09/01 10:30:51;;;;;;;17.45;12.68;;;;;;;25.67;67.08;94455.66;5029644;28;20210;-59
2022/09/01 10:33:19;;;;;;;15.90;12.35;;;;;;;25.63;67.23;94457.13;5032034;28;20707;-60
2022/09/01 10:35:49;;;;;;;15.18;11.30;;;;;;;25.70;68.40;94427.34;5031821;28;20675;-60
2022/09/01 10:38:21;;;;;;;14.35;10.63;;;;;;;25.88;64.79;94504.56;5032000;28;20194;-59
2022/09/01 10:41:05;;;;;;;19.65;11.35;;;;;;;25.56;65.94;94469.44;5031783;28;20186;-60
2022/09/01 10:43:40;;;;;;;17.05;10.75;;;;;;;25.43;67.43;94436.59;5032008;28;20214;-59
2022/09/01 10:46:21;;;;;;;13.00;10.98;;;;;;;25.49;67.53;94438.31;5032189;28;20174;-62
2022/09/01 10:48:49;;;;;;;16.08;11.13;;;;;;;25.44;68.70;94413.97;5032100;28;20213;-61
2022/09/01 10:51:15;;;;;;;15.57;10.38;;;;;;;25.56;67.04;94454.63;5032031;28;20225;-62
2022/09/01 10:53:49;;;;;;;14.68;10.68;;;;;;;25.60;63.96;94509.63;5013846;28;20236;-62
2022/09/01 10:56:36;;;;;;;12.38;9.57;;;;;;;25.35;66.90;94431.72;5031649;28;20197;-62
2022/09/01 10:59:07;;;;;;;13.10;10.75;;;;;;;25.40;69.40;94384.19;5013794;28;20641;-62
2022/09/01 11:01:38;;;;;;;13.15;11.10;;;;;;;25.58;66.31;94452.59;5031441;28;20229;-62
2022/09/01 11:04:09;;;;;;;17.92;12.25;;;;;;;25.69;65.36;94471.84;5039414;22;20648;-61
2022/09/01 11:06:41;;;;;;;11.93;10.60;;;;;;;25.52;68.21;94388.41;5031553;28;20197;-61
2022/09/01 11:09:20;;;;;;;16.15;11.32;;;;;;;25.62;68.49;94390.41;5031634;28;20218;-62
2022/09/01 11:11:54;;;;;;;12.35;10.25;;;;;;;25.76;69.25;94373.53;5031554;28;20201;-61
2022/09/01 11:14:23;;;;;;;12.52;9.98;;;;;;;26.03;64.46;94489.25;5031350;28;20221;-62
2022/09/01 11:17:12;;;;;;;11.68;10.07;;;;;;;25.92;65.57;94450.97;5031439;28;20216;-61
2022/09/01 11:19:39;;;;;;;15.98;10.57;;;;;;;25.97;66.99;94416.41;5013770;28;20213;-61
2022/09/01 11:22:25;;;;;;;16.50;10.52;;;;;;;25.97;67.51;94409.41;5013053;28;20214;-61
2022/09/01 11:25:24;;;;;;;16.45;11.02;;;;;;;25.78;66.61;94421.78;5031253;28;20221;-62
2022/09/01 11:27:50;;;;;;;15.43;10.98;;;;;;;25.81;67.13;94399.69;5013618;28;20209;-62
2022/09/01 11:30:20;;;;;;;14.38;11.10;;;;;;;25.92;66.64;94422.31;5031094;28;20214;-62